首页
METAR-TAF:

METAR-TAF

机场 :

贾特拉帕蒂·希瓦吉国际机场

孟买, 印度

纬度: 19-07N, 经度: 072-51E, 海拔: 8米

当前天气观测

该预报发布于31分钟前的17:30 UTC
风速4节,风向西南
温度 25°C
湿度 100%
气压 1005 hPa
能見度: 1500
少量云层高于1200英尺
散云层高于1800英尺
少量云层高于3000英尺, 积雨云.
阴天层高于8000英尺

METAR: VABB 231730Z 23004KT 1500 R27/1600 RA FEW012 SCT018 FEW030CB OVC080 25/25 Q1005 TEMPO 0800 +SHRA

时间: 23:31 (18:01 UTC)

预报

该预报发布于1小时和1分钟前的17:00 UTC
预报有效从23日的 18点(UTC)到 24日的 24点(UTC)
风速4节,风向
能見度: 2000
少量云层高于1200英尺
散云层高于1800英尺
少量云层高于2500英尺, 塔状积云.
多云层高于9000英尺
小雨, 轻雾
短暂存在
从 23日的 18点(UTC)到 24日的 12点(UTC)
能見度: 0800
散云层高于1000英尺
散云层高于1500英尺
少量云层高于3000英尺, 积雨云.
阴天层高于8000英尺
雷暴, 雨, 阵雨
成为
从 24日的 00点(UTC)到 24日的 02点(UTC)
风速6节,风向西转西南
能見度: 3000
小雨, 霾
成为
从 24日的 06点(UTC)到 24日的 08点(UTC)
风速7节,风向西,有时为17节阵风
成为
从 24日的 11点(UTC)到 24日的 13点(UTC)
风速8节,风向西
短暂存在
从 24日的 12点(UTC)到 24日的 24点(UTC)
能見度: 1500
散云层高于1000英尺
散云层高于1500英尺
少量云层高于3000英尺, 积雨云.
阴天层高于8000英尺
雷暴, 小雨, 小阵雨
成为
从 24日的 13点(UTC)到 24日的 15点(UTC)
风速5节,风向
能見度: 2000
小雨, 轻雾

TAF: VABB 231700Z 2318/2424 17004KT 2000 -RA BR FEW012 SCT018 FEW025TCU BKN090 TEMPO 2318/2412 0800 TSRA SHRA SCT010 SCT015 FEW030CB OVC080 BECMG 2400/2402 25006KT 3000 -RA HZ BECMG 2406/2408 26007G17KT BECMG 2411/2413 26008KT TEMPO 2412/2424 1500 -TSRA -SHRA SCT010 SCT015 FEW030CB OVC080 BECMG 2413/2415 17005KT 2000 -RA BR

超过4000个机场的气象观测和天气预报(METAR&TAF报告)。

可查询的气象台以黄色和红色小点在地图上表示。

将鼠标移到小点上方,可查看气象台名称。

然后点击查看天气观测和预报。

如需切换地图:点击带黑十字的绿色按钮放大地图;点击带横线的绿色按钮缩小地图;或者点击绿色箭头查看邻近地区的地图。


METAR-TAF: